Terminal Aerodrome Forecast
Issued by NWS

Home | Current Version | Previous Version | Text Only | Print | Product List | Glossary On
Versions: 1 2 3 4 5 6 7 8 9 10 11 12 13 14 15 16 17 18 19 20 21 22 23 24
000
FTUS45 KLKN 142320
TAFELY
TAF
KELY 142320Z 1500/1524 36010KT P6SM VCSH BKN040
     FM150300 VRB06KT 6SM -SN OVC035
     FM152000 33007KT P6SM SCT050 BKN200=

USA.gov is the U.S. government's official web portal to all federal, state and local government web resources and services.